createdAt,value
2018-01-05T00:00:32.571Z,7.21
2018-01-05T00:01:18.601Z,7.16
2018-01-05T00:02:19.248Z,7.26
2018-01-05T00:03:18.448Z,7.18
2018-01-05T00:04:18.786Z,7.27
2018-01-05T00:05:19.269Z,7.22
2018-01-05T00:06:17.941Z,7.23
2018-01-05T00:07:17.898Z,7.22
2018-01-05T00:08:19.648Z,7.31
2018-01-05T00:09:18.730Z,7.27
2018-01-05T00:10:19.328Z,7.34
2018-01-05T00:11:18.684Z,7.3
2018-01-05T00:12:18.807Z,7.31
2018-01-05T00:13:19.708Z,7.37
2018-01-05T00:14:19.923Z,7.31
2018-01-05T00:15:19.864Z,7.34
2018-01-05T00:16:19.972Z,7.34
2018-01-05T00:17:20.033Z,7.39
2018-01-05T00:18:20.096Z,7.34
2018-01-05T00:19:19.636Z,7.45
2018-01-05T00:20:19.943Z,7.34
2018-01-05T00:21:20.046Z,7.48
2018-01-05T00:22:19.667Z,7.4
2018-01-05T00:23:20.050Z,7.48
2018-01-05T00:24:20.040Z,7.36
2018-01-05T00:25:19.997Z,7.41
2018-01-05T00:26:18.813Z,7.41
2018-01-05T00:27:18.571Z,7.49
2018-01-05T00:28:19.158Z,7.45
2018-01-05T00:29:18.556Z,7.39
2018-01-05T00:30:20.050Z,7.37
2018-01-05T00:31:20.136Z,7.48
2018-01-05T00:32:19.255Z,7.44
2018-01-05T00:33:20.023Z,7.45
2018-01-05T00:34:19.588Z,7.37
2018-01-05T00:35:20.314Z,7.51
2018-01-05T00:36:20.479Z,7.37
2018-01-05T00:37:21.013Z,7.45
2018-01-05T00:38:20.407Z,7.44
2018-01-05T00:39:20.145Z,7.3
2018-01-05T00:40:19.366Z,7.31
2018-01-05T00:41:19.994Z,7.36
2018-01-05T00:42:20.948Z,7.33
2018-01-05T00:43:19.913Z,7.33
2018-01-05T00:44:20.592Z,7.27
2018-01-05T00:45:20.626Z,7.23
2018-01-05T00:46:20.855Z,7.16
2018-01-05T00:47:20.441Z,7.21
2018-01-05T00:48:20.611Z,7.16
2018-01-05T00:49:20.538Z,7.15
2018-01-05T00:50:20.697Z,7.18
2018-01-05T00:51:22.604Z,7.22
2018-01-05T00:52:22.454Z,7.19
2018-01-05T00:53:21.391Z,7.26
2018-01-05T00:54:21.601Z,7.33
2018-01-05T00:55:22.351Z,7.37
2018-01-05T00:56:21.385Z,7.37
2018-01-05T00:57:22.969Z,7.39
2018-01-05T00:58:22.767Z,7.39
2018-01-05T00:59:21.971Z,7.45
2018-01-05T01:00:26.706Z,7.44
2018-01-05T01:01:27.370Z,7.4
2018-01-05T01:02:27.390Z,7.45
2018-01-05T01:03:27.728Z,7.44
2018-01-05T01:04:27.887Z,7.47
2018-01-05T01:05:28.553Z,7.44
2018-01-05T01:06:28.342Z,7.44
2018-01-05T01:07:28.655Z,7.49
2018-01-05T01:08:28.788Z,7.55
2018-01-05T01:09:28.130Z,7.48
2018-01-05T01:10:28.878Z,7.51
2018-01-05T01:11:28.922Z,7.51
2018-01-05T01:12:29.415Z,7.52
2018-01-05T01:13:28.657Z,7.52
2018-01-05T01:14:28.661Z,7.55
2018-01-05T01:15:29.010Z,7.44
2018-01-05T01:16:28.977Z,7.54
2018-01-05T01:17:28.900Z,7.51
2018-01-05T01:18:29.553Z,7.56
2018-01-05T01:19:29.224Z,7.56
2018-01-05T01:20:29.642Z,7.51
2018-01-05T01:21:29.832Z,7.48
2018-01-05T01:22:29.900Z,7.58
2018-01-05T01:23:29.930Z,7.54
2018-01-05T01:24:30.579Z,7.56
2018-01-05T01:25:30.993Z,7.59
2018-01-05T01:26:31.009Z,7.54
2018-01-05T01:27:30.894Z,7.68
2018-01-05T01:28:30.933Z,7.55
2018-01-05T01:29:31.462Z,7.64
2018-01-05T01:30:31.605Z,7.58
2018-01-05T01:31:31.729Z,7.68
2018-01-05T01:32:31.605Z,7.59
2018-01-05T01:33:31.435Z,7.64
2018-01-05T01:34:31.783Z,7.73
2018-01-05T01:35:31.970Z,7.59
2018-01-05T01:36:32.010Z,7.71
2018-01-05T01:37:32.196Z,7.67
2018-01-05T01:38:32.573Z,7.77
2018-01-05T01:39:32.337Z,7.75
2018-01-05T01:40:32.610Z,7.7
2018-01-05T01:41:32.557Z,7.7
2018-01-05T01:42:33.107Z,7.74
2018-01-05T01:43:33.377Z,7.7
2018-01-05T01:44:33.498Z,7.75
2018-01-05T01:45:33.628Z,7.78
2018-01-05T01:46:33.873Z,7.85
2018-01-05T01:47:33.960Z,7.8
2018-01-05T01:48:33.937Z,7.85
2018-01-05T01:49:34.065Z,7.78
2018-01-05T01:50:34.206Z,7.83
2018-01-05T01:51:34.527Z,7.91
2018-01-05T01:52:34.902Z,7.8
2018-01-05T01:53:35.027Z,7.96
2018-01-05T01:54:34.988Z,7.89
2018-01-05T01:55:35.225Z,7.96
2018-01-05T01:56:35.674Z,8.01
2018-01-05T01:57:35.400Z,7.96
2018-01-05T01:58:35.635Z,7.99
2018-01-05T01:59:35.970Z,7.98
2018-01-05T02:00:36.172Z,8.01
2018-01-05T02:01:36.177Z,7.92
2018-01-05T02:02:35.701Z,7.91
2018-01-05T02:03:37.271Z,7.83
2018-01-05T02:04:36.837Z,7.85
2018-01-05T02:05:36.577Z,7.83
2018-01-05T02:06:37.641Z,7.7
2018-01-05T02:07:37.371Z,7.59
2018-01-05T02:08:37.471Z,7.58
2018-01-05T02:09:37.163Z,7.45
2018-01-05T02:10:37.513Z,7.41
2018-01-05T02:11:37.894Z,7.44
2018-01-05T02:12:38.014Z,7.36
2018-01-05T02:13:37.738Z,7.33
2018-01-05T02:14:37.974Z,7.33
2018-01-05T02:15:38.198Z,7.36
2018-01-05T02:16:38.312Z,7.3
2018-01-05T02:17:38.345Z,7.34
2018-01-05T02:18:38.449Z,7.33
2018-01-05T02:19:38.859Z,7.44
2018-01-05T02:20:39.284Z,7.44
2018-01-05T02:21:39.008Z,7.47
2018-01-05T02:22:38.907Z,7.54
2018-01-05T02:23:39.653Z,7.56
2018-01-05T02:24:39.409Z,7.56
2018-01-05T02:25:39.014Z,7.56
2018-01-05T02:26:39.308Z,7.55
2018-01-05T02:27:39.200Z,7.47
2018-01-05T02:28:39.486Z,7.55
2018-01-05T02:29:39.785Z,7.54
2018-01-05T02:30:39.809Z,7.51
2018-01-05T02:31:39.909Z,7.47
2018-01-05T02:32:39.940Z,7.41
2018-01-05T02:33:39.995Z,7.54
2018-01-05T02:34:39.759Z,7.51
2018-01-05T02:35:40.154Z,7.55
2018-01-05T02:36:40.774Z,7.63
2018-01-05T02:37:40.567Z,7.73
2018-01-05T02:38:40.860Z,7.67
2018-01-05T02:39:41.015Z,7.73
2018-01-05T02:40:41.803Z,7.7
2018-01-05T02:41:42.820Z,7.75
2018-01-05T02:42:41.842Z,7.8
2018-01-05T02:43:41.847Z,7.78
2018-01-05T02:44:41.220Z,7.83
2018-01-05T02:45:41.745Z,7.85
2018-01-05T02:46:42.151Z,7.85
2018-01-05T02:47:42.075Z,7.88
2018-01-05T02:48:43.253Z,7.78
2018-01-05T02:49:42.445Z,7.77
2018-01-05T02:50:42.877Z,7.78
2018-01-05T02:51:42.233Z,7.8
2018-01-05T02:52:43.114Z,7.75
2018-01-05T02:53:42.843Z,7.82
2018-01-05T02:54:42.798Z,7.75
2018-01-05T02:55:42.729Z,7.74
2018-01-05T02:56:42.803Z,7.75
2018-01-05T02:57:44.015Z,7.63
2018-01-05T02:58:43.783Z,7.59
2018-01-05T02:59:43.969Z,7.58
2018-01-05T03:00:43.848Z,7.58
2018-01-05T03:01:44.023Z,7.56
2018-01-05T03:02:44.049Z,7.48
2018-01-05T03:03:44.199Z,7.56
2018-01-05T03:04:44.230Z,7.54
2018-01-05T03:05:44.993Z,7.54
2018-01-05T03:06:45.373Z,7.56
2018-01-05T03:07:45.174Z,7.52
2018-01-05T03:08:44.952Z,7.48
2018-01-05T03:09:44.750Z,7.44
2018-01-05T03:10:45.130Z,7.49
2018-01-05T03:11:45.076Z,7.31
2018-01-05T03:12:45.125Z,7.3
2018-01-05T03:13:45.338Z,7.26
2018-01-05T03:14:45.162Z,7.3
2018-01-05T03:15:46.183Z,7.34
2018-01-05T03:16:45.408Z,7.34
2018-01-05T03:17:45.575Z,7.26
2018-01-05T03:18:46.535Z,7.23
2018-01-05T03:19:46.162Z,7.22
2018-01-05T03:20:46.282Z,7.16
2018-01-05T03:21:46.098Z,7.12
2018-01-05T03:22:46.216Z,7.12
2018-01-05T03:23:46.545Z,7.16
2018-01-05T03:24:46.969Z,7.12
2018-01-05T03:25:46.971Z,7.11
2018-01-05T03:26:47.026Z,7.11
2018-01-05T03:27:47.035Z,7.08
2018-01-05T03:28:46.805Z,7.13
2018-01-05T03:29:47.241Z,7.16
2018-01-05T03:30:47.308Z,7.09
2018-01-05T03:31:47.785Z,7.09
2018-01-05T03:32:47.981Z,7.12
2018-01-05T03:33:47.788Z,7.21
2018-01-05T03:34:47.832Z,7.15
2018-01-05T03:35:47.940Z,7.11
2018-01-05T03:36:48.029Z,7.05
2018-01-05T03:37:48.593Z,7.05
2018-01-05T03:38:47.717Z,7.09
2018-01-05T03:39:47.993Z,7.04
2018-01-05T03:40:48.392Z,6.97
2018-01-05T03:41:48.054Z,7.04
2018-01-05T03:42:48.614Z,7
2018-01-05T03:43:48.209Z,7.03
2018-01-05T03:44:48.933Z,7.03
2018-01-05T03:45:48.544Z,7.09
2018-01-05T03:46:50.190Z,7.13
2018-01-05T03:47:49.337Z,7.13
2018-01-05T03:48:49.314Z,7.18
2018-01-05T03:49:49.973Z,7.19
2018-01-05T03:50:49.064Z,7.26
2018-01-05T03:51:49.736Z,7.26
2018-01-05T03:52:49.821Z,7.29
2018-01-05T03:53:49.801Z,7.31
2018-01-05T03:54:49.572Z,7.45
2018-01-05T03:55:49.739Z,7.41
2018-01-05T03:56:50.478Z,7.44
2018-01-05T03:57:50.502Z,7.47
2018-01-05T03:58:50.390Z,7.47
2018-01-05T03:59:50.852Z,7.55
2018-01-05T04:00:50.683Z,7.58
2018-01-05T04:01:51.225Z,7.55
2018-01-05T04:02:51.278Z,7.55
2018-01-05T04:03:50.974Z,7.63
2018-01-05T04:04:51.336Z,7.67
2018-01-05T04:05:51.452Z,7.71
2018-01-05T04:06:51.674Z,7.73
2018-01-05T04:07:52.100Z,7.64
2018-01-05T04:08:52.154Z,7.63
2018-01-05T04:09:51.907Z,7.64
2018-01-05T04:10:52.715Z,7.58
2018-01-05T04:11:52.732Z,7.59
2018-01-05T04:12:52.736Z,7.56
2018-01-05T04:13:52.870Z,7.59
2018-01-05T04:14:52.881Z,7.64
2018-01-05T04:15:52.849Z,7.73
2018-01-05T04:16:52.615Z,7.56
2018-01-05T04:17:53.127Z,7.56
2018-01-05T04:18:53.828Z,7.55
2018-01-05T04:19:53.538Z,7.44
2018-01-05T04:20:54.455Z,7.41
2018-01-05T04:21:54.416Z,7.37
2018-01-05T04:22:54.669Z,7.4
2018-01-05T04:23:54.740Z,7.49
2018-01-05T04:24:55.718Z,7.36
2018-01-05T04:25:55.428Z,7.45
2018-01-05T04:26:54.727Z,7.36
2018-01-05T04:27:55.462Z,7.34
2018-01-05T04:28:55.398Z,7.3
2018-01-05T04:29:55.424Z,7.27
2018-01-05T04:30:55.561Z,7.19
2018-01-05T04:31:56.658Z,7.29
2018-01-05T04:32:56.355Z,7.21
2018-01-05T04:33:56.624Z,7.22
2018-01-05T04:34:56.918Z,7.27
2018-01-05T04:35:56.854Z,7.22
2018-01-05T04:36:57.457Z,7.16
2018-01-05T04:37:57.302Z,7.13
2018-01-05T04:38:56.695Z,7.09
2018-01-05T04:39:57.211Z,7
2018-01-05T04:40:56.993Z,7.04
2018-01-05T04:41:56.864Z,7.01
2018-01-05T04:42:57.126Z,7.01
2018-01-05T04:43:58.023Z,6.98
2018-01-05T04:44:57.779Z,6.9
2018-01-05T04:45:56.788Z,6.88
2018-01-05T04:46:57.618Z,6.83
2018-01-05T04:47:56.968Z,6.67
2018-01-05T04:48:58.184Z,6.68
2018-01-05T04:49:57.347Z,6.64
2018-01-05T04:50:57.526Z,6.49
2018-01-05T04:51:57.810Z,6.54
2018-01-05T04:52:57.774Z,6.49
2018-01-05T04:53:59.385Z,6.42
2018-01-05T04:54:58.396Z,6.4
2018-01-05T04:55:58.650Z,6.28
2018-01-05T04:56:59.149Z,6.26
2018-01-05T04:57:58.696Z,6.25
2018-01-05T04:58:59.209Z,6.2
2018-01-05T04:59:59.357Z,6.4
2018-01-05T05:00:58.921Z,6.34
2018-01-05T05:01:59.355Z,6.46
2018-01-05T05:02:59.376Z,6.49
2018-01-05T05:03:59.330Z,6.46
2018-01-05T05:04:59.482Z,6.49
2018-01-05T05:05:58.943Z,6.57
2018-01-05T05:06:59.414Z,6.51
2018-01-05T05:07:59.645Z,6.54
2018-01-05T05:08:59.930Z,6.44
2018-01-05T05:09:59.423Z,6.44
2018-01-05T05:10:59.780Z,6.46
2018-01-05T05:11:59.746Z,6.37
2018-01-05T05:12:59.981Z,6.42
2018-01-05T05:14:00.707Z,6.36
2018-01-05T05:15:00.261Z,6.31
2018-01-05T05:16:00.110Z,6.21
2018-01-05T05:17:00.136Z,6.2
2018-01-05T05:18:00.517Z,6.15
2018-01-05T05:19:00.673Z,6.15
2018-01-05T05:20:00.959Z,6.14
2018-01-05T05:21:00.985Z,6.21
2018-01-05T05:22:01.200Z,6.14
2018-01-05T05:23:01.216Z,6.24
2018-01-05T05:24:01.000Z,6.14
2018-01-05T05:25:00.998Z,6.18
2018-01-05T05:26:01.479Z,6.18
2018-01-05T05:27:01.307Z,6.09
2018-01-05T05:28:01.776Z,6.06
2018-01-05T05:29:01.622Z,6.05
2018-01-05T05:30:01.292Z,6.05
2018-01-05T05:31:01.851Z,6.03
2018-01-05T05:32:02.432Z,5.99
2018-01-05T05:33:02.117Z,6.03
2018-01-05T05:34:01.872Z,6.13
2018-01-05T05:35:02.335Z,6.07
2018-01-05T05:36:02.359Z,6.25
2018-01-05T05:37:02.791Z,6.24
2018-01-05T05:38:03.257Z,6.26
2018-01-05T05:39:03.244Z,6.17
2018-01-05T05:40:03.646Z,6.26
2018-01-05T05:41:03.566Z,6.4
2018-01-05T05:42:03.563Z,6.37
2018-01-05T05:43:03.919Z,6.37
2018-01-05T05:44:04.155Z,6.43
2018-01-05T05:45:03.645Z,6.39
2018-01-05T05:46:03.942Z,6.46
2018-01-05T05:47:04.138Z,6.44
2018-01-05T05:48:04.762Z,6.49
2018-01-05T05:49:04.460Z,6.47
2018-01-05T05:50:05.033Z,6.52
2018-01-05T05:51:05.134Z,6.52
2018-01-05T05:52:04.795Z,6.37
2018-01-05T05:53:04.786Z,6.4
2018-01-05T05:54:05.227Z,6.36
2018-01-05T05:55:04.786Z,6.4
2018-01-05T05:56:04.760Z,6.43
2018-01-05T05:57:05.051Z,6.39
2018-01-05T05:58:04.808Z,6.36
2018-01-05T05:59:05.107Z,6.4
2018-01-05T06:00:19.978Z,6.29
2018-01-05T06:01:04.862Z,6.29
2018-01-05T06:02:05.421Z,6.18
2018-01-05T06:03:05.195Z,6.09
2018-01-05T06:04:05.230Z,6.14
2018-01-05T06:05:05.517Z,6.07
2018-01-05T06:06:05.806Z,6.13
2018-01-05T06:07:05.716Z,6.05
2018-01-05T06:08:06.027Z,6.09
2018-01-05T06:09:06.087Z,6.06
2018-01-05T06:10:06.814Z,6.21
2018-01-05T06:11:05.857Z,6.21
2018-01-05T06:12:05.623Z,6.31
2018-01-05T06:13:06.310Z,6.28
2018-01-05T06:14:06.541Z,6.17
2018-01-05T06:15:06.236Z,6.26
2018-01-05T06:16:06.492Z,6.34
2018-01-05T06:17:07.050Z,6.46
2018-01-05T06:18:06.791Z,6.42
2018-01-05T06:19:07.135Z,6.39
2018-01-05T06:20:07.074Z,6.37
2018-01-05T06:21:07.039Z,6.43
2018-01-05T06:22:07.202Z,6.42
2018-01-05T06:23:07.464Z,6.4
2018-01-05T06:24:07.851Z,6.52
2018-01-05T06:25:08.255Z,6.43
2018-01-05T06:26:08.362Z,6.4
2018-01-05T06:27:07.915Z,6.52
2018-01-05T06:28:08.771Z,6.54
2018-01-05T06:29:08.974Z,6.47
2018-01-05T06:30:08.740Z,6.52
2018-01-05T06:31:08.674Z,6.49
2018-01-05T06:32:08.783Z,6.44
2018-01-05T06:33:08.704Z,6.43
2018-01-05T06:34:08.805Z,6.47
2018-01-05T06:35:09.253Z,6.43
2018-01-05T06:36:08.496Z,6.44
2018-01-05T06:37:08.801Z,6.37
2018-01-05T06:38:08.579Z,6.39
2018-01-05T06:39:08.628Z,6.43
2018-01-05T06:40:09.325Z,6.4
2018-01-05T06:41:09.324Z,6.37
2018-01-05T06:42:08.835Z,6.34
2018-01-05T06:43:09.404Z,6.37
2018-01-05T06:44:09.348Z,6.39
2018-01-05T06:45:09.660Z,6.37
2018-01-05T06:46:10.088Z,6.4
2018-01-05T06:47:10.502Z,6.43
2018-01-05T06:48:10.508Z,6.46
2018-01-05T06:49:10.274Z,6.54
2018-01-05T06:50:11.107Z,6.54
2018-01-05T06:51:11.251Z,6.55
2018-01-05T06:52:10.950Z,6.54
2018-01-05T06:53:11.065Z,6.51
2018-01-05T06:54:11.413Z,6.55
2018-01-05T06:55:11.330Z,6.58
2018-01-05T06:56:11.582Z,6.64
2018-01-05T06:57:12.112Z,6.68
2018-01-05T06:58:13.308Z,6.75
2018-01-05T06:59:12.758Z,6.7
2018-01-05T07:00:27.439Z,6.79
2018-01-05T07:01:12.364Z,6.8
2018-01-05T07:02:12.940Z,6.8
2018-01-05T07:03:13.722Z,6.83
2018-01-05T07:04:13.032Z,6.79
2018-01-05T07:05:13.664Z,6.83
2018-01-05T07:06:13.283Z,6.85
2018-01-05T07:07:13.612Z,6.94
2018-01-05T07:08:13.981Z,6.9
2018-01-05T07:09:15.389Z,6.93
2018-01-05T07:10:13.713Z,6.91
2018-01-05T07:11:13.985Z,6.85
2018-01-05T07:12:13.680Z,6.95
2018-01-05T07:13:14.092Z,7.04
2018-01-05T07:14:14.855Z,7.05
2018-01-05T07:15:14.947Z,6.95
2018-01-05T07:16:14.847Z,7
2018-01-05T07:17:14.899Z,6.98
2018-01-05T07:18:14.660Z,6.91
2018-01-05T07:19:15.554Z,6.98
2018-01-05T07:20:15.260Z,6.97
2018-01-05T07:21:15.144Z,6.93
2018-01-05T07:22:15.864Z,6.98
2018-01-05T07:23:15.600Z,6.97
2018-01-05T07:24:15.886Z,7.01
2018-01-05T07:25:15.906Z,6.97
2018-01-05T07:26:16.118Z,6.91
2018-01-05T07:27:16.120Z,6.88
2018-01-05T07:28:16.637Z,6.91
2018-01-05T07:29:16.496Z,6.8
2018-01-05T07:30:17.054Z,6.82
2018-01-05T07:31:16.605Z,6.82
2018-01-05T07:32:16.770Z,6.76
2018-01-05T07:33:16.881Z,6.82
2018-01-05T07:34:17.333Z,6.82
2018-01-05T07:35:17.090Z,6.85
2018-01-05T07:36:17.086Z,7
2018-01-05T07:37:17.398Z,6.93
2018-01-05T07:38:17.862Z,6.95
2018-01-05T07:39:17.954Z,6.95
2018-01-05T07:40:18.612Z,7.01
2018-01-05T07:41:18.256Z,6.98
2018-01-05T07:42:17.966Z,7.03
2018-01-05T07:43:17.590Z,6.98
2018-01-05T07:44:18.143Z,7.03
2018-01-05T07:45:18.177Z,7.01
2018-01-05T07:46:18.219Z,7.05
2018-01-05T07:47:18.377Z,7.01
2018-01-05T07:48:18.282Z,7.03
2018-01-05T07:49:18.341Z,7.04
2018-01-05T07:50:18.749Z,7.03
2018-01-05T07:51:18.760Z,7.12
2018-01-05T07:52:18.156Z,7.11
2018-01-05T07:53:18.279Z,7.19
2018-01-05T07:54:18.699Z,7.15
2018-01-05T07:55:18.712Z,7.18
2018-01-05T07:56:18.741Z,7.23
2018-01-05T07:57:19.455Z,7.16
2018-01-05T07:58:20.054Z,7.21
2018-01-05T07:59:19.715Z,7.13
2018-01-05T08:00:25.029Z,7.19
2018-01-05T08:01:25.292Z,7.26
2018-01-05T08:02:25.227Z,7.27
2018-01-05T08:03:25.824Z,7.22
2018-01-05T08:04:25.141Z,7.21
2018-01-05T08:05:24.934Z,7.34
2018-01-05T08:06:25.204Z,7.27
2018-01-05T08:07:24.983Z,7.3
2018-01-05T08:08:25.280Z,7.31
2018-01-05T08:09:24.987Z,7.34
2018-01-05T08:10:25.514Z,7.36
2018-01-05T08:11:25.543Z,7.34
2018-01-05T08:12:25.308Z,7.39
2018-01-05T08:13:25.773Z,7.49
2018-01-05T08:14:25.788Z,7.49
2018-01-05T08:15:25.942Z,7.4
2018-01-05T08:16:26.404Z,7.45
2018-01-05T08:17:26.398Z,7.51
2018-01-05T08:18:26.439Z,7.48
2018-01-05T08:19:26.893Z,7.52
2018-01-05T08:20:26.878Z,7.45
2018-01-05T08:21:27.280Z,7.55
2018-01-05T08:22:27.340Z,7.56
2018-01-05T08:23:27.606Z,7.44
2018-01-05T08:24:28.075Z,7.58
2018-01-05T08:25:27.842Z,7.55
2018-01-05T08:26:28.364Z,7.63
2018-01-05T08:27:28.108Z,7.63
2018-01-05T08:28:28.570Z,7.61
2018-01-05T08:29:27.879Z,7.74
2018-01-05T08:30:28.291Z,7.75
2018-01-05T08:31:29.023Z,7.74
2018-01-05T08:32:29.048Z,7.7
2018-01-05T08:33:29.017Z,7.83
2018-01-05T08:34:28.976Z,7.88
2018-01-05T08:35:29.526Z,7.95
2018-01-05T08:36:29.407Z,8.01
2018-01-05T08:37:29.561Z,8.07
2018-01-05T08:38:29.886Z,8.13
2018-01-05T08:39:30.461Z,8.07
2018-01-05T08:40:29.990Z,8.13
2018-01-05T08:41:30.452Z,8.21
2018-01-05T08:42:29.733Z,8.26
2018-01-05T08:43:30.231Z,8.29
2018-01-05T08:44:30.080Z,8.31
2018-01-05T08:45:29.839Z,8.32
2018-01-05T08:46:30.286Z,8.4
2018-01-05T08:47:30.170Z,8.34
2018-01-05T08:48:30.342Z,8.39
2018-01-05T08:49:29.916Z,8.31
2018-01-05T08:50:30.247Z,8.32
2018-01-05T08:51:30.227Z,8.34
2018-01-05T08:52:30.473Z,8.28
2018-01-05T08:53:30.885Z,8.34
2018-01-05T08:54:36.656Z,8.42
2018-01-05T08:55:36.443Z,8.34
2018-01-05T08:56:36.997Z,8.25
2018-01-05T08:57:37.139Z,8.28
2018-01-05T08:58:37.404Z,8.24
2018-01-05T08:59:37.588Z,8.26
2018-01-05T09:00:37.048Z,8.28
2018-01-05T09:01:37.265Z,8.21
2018-01-05T09:02:37.415Z,8.28
2018-01-05T09:03:38.162Z,8.28
2018-01-05T09:04:38.081Z,8.39
2018-01-05T09:05:37.247Z,8.35
2018-01-05T09:06:38.148Z,8.31
2018-01-05T09:07:37.544Z,8.36
2018-01-05T09:08:36.720Z,8.46
2018-01-05T09:09:37.393Z,8.46
2018-01-05T09:10:37.020Z,8.5
2018-01-05T09:11:37.240Z,8.52
2018-01-05T09:12:38.111Z,8.57
2018-01-05T09:13:38.036Z,8.52
2018-01-05T09:14:38.250Z,8.58
2018-01-05T09:15:39.035Z,8.54
2018-01-05T09:16:38.980Z,8.57
2018-01-05T09:17:38.710Z,8.5
2018-01-05T09:18:38.128Z,8.52
2018-01-05T09:19:38.104Z,8.61
2018-01-05T09:20:38.739Z,8.58
2018-01-05T09:21:37.922Z,8.58
2018-01-05T09:22:38.784Z,8.64
2018-01-05T09:23:38.299Z,8.62
2018-01-05T09:24:38.599Z,8.62
2018-01-05T09:25:38.462Z,8.8
2018-01-05T09:26:38.041Z,8.98
2018-01-05T09:27:39.409Z,9.11
2018-01-05T09:28:40.063Z,9.19
2018-01-05T09:29:40.509Z,9.26
2018-01-05T09:30:39.921Z,9.39
2018-01-05T09:31:39.319Z,9.44
2018-01-05T09:32:40.428Z,9.34
2018-01-05T09:33:39.296Z,9.35
2018-01-05T09:34:39.424Z,9.39
2018-01-05T09:35:38.386Z,9.38
2018-01-05T09:36:39.362Z,9.35
2018-01-05T09:37:38.454Z,9.37
2018-01-05T09:38:38.648Z,9.41
2018-01-05T09:39:39.284Z,9.38
2018-01-05T09:40:39.014Z,9.41
2018-01-05T09:41:39.445Z,9.3
2018-01-05T09:42:40.235Z,9.27
2018-01-05T09:43:40.887Z,9.41
2018-01-05T09:44:40.990Z,9.39
2018-01-05T09:45:40.553Z,9.38
2018-01-05T09:46:40.606Z,9.42
2018-01-05T09:47:40.673Z,9.39
2018-01-05T09:48:41.219Z,9.41
2018-01-05T09:49:41.092Z,9.37
2018-01-05T09:50:41.610Z,9.26
2018-01-05T09:51:41.340Z,9.27
2018-01-05T09:52:41.258Z,9.29
2018-01-05T09:53:41.075Z,9.24
2018-01-05T09:54:41.177Z,9.19
2018-01-05T09:55:41.408Z,9.21
2018-01-05T09:56:41.382Z,9.27
2018-01-05T09:57:41.775Z,9.37
2018-01-05T09:58:41.375Z,9.3
2018-01-05T09:59:41.151Z,9.23
2018-01-05T10:00:42.327Z,9.23
2018-01-05T10:01:41.285Z,9.19
2018-01-05T10:02:41.733Z,9.12
2018-01-05T10:03:42.101Z,9.2
2018-01-05T10:04:41.913Z,9.23
2018-01-05T10:05:42.722Z,9.17
2018-01-05T10:06:42.321Z,9.3
2018-01-05T10:07:41.873Z,9.35
2018-01-05T10:08:42.546Z,9.41
2018-01-05T10:09:42.689Z,9.56
2018-01-05T10:10:42.361Z,9.66
2018-01-05T10:11:42.280Z,9.64
2018-01-05T10:12:42.380Z,9.75
2018-01-05T10:13:42.237Z,9.78
2018-01-05T10:14:43.581Z,9.77
2018-01-05T10:15:42.439Z,9.85
2018-01-05T10:16:43.525Z,9.9
2018-01-05T10:17:43.592Z,9.92
2018-01-05T10:18:43.568Z,10.02
2018-01-05T10:19:43.546Z,10.07
2018-01-05T10:20:42.683Z,10.08
2018-01-05T10:21:42.733Z,10.13
2018-01-05T10:22:42.615Z,10.18
2018-01-05T10:23:42.579Z,10.28
2018-01-05T10:24:42.661Z,10.31
2018-01-05T10:25:42.676Z,10.2
2018-01-05T10:26:43.586Z,10.23
2018-01-05T10:27:43.011Z,10.2
2018-01-05T10:28:42.712Z,10.18
2018-01-05T10:29:43.849Z,10.31
2018-01-05T10:30:44.426Z,10.31
2018-01-05T10:31:44.069Z,10.28
2018-01-05T10:32:42.860Z,10.26
2018-01-05T10:33:43.448Z,10.29
2018-01-05T10:34:42.922Z,10.29
2018-01-05T10:35:43.602Z,10.35
2018-01-05T10:36:42.424Z,10.32
2018-01-05T10:37:42.739Z,10.31
2018-01-05T10:38:42.783Z,10.49
2018-01-05T10:39:42.822Z,10.47
2018-01-05T10:40:43.520Z,10.58
2018-01-05T10:41:43.452Z,10.79
2018-01-05T10:42:43.427Z,11.06
2018-01-05T10:43:43.030Z,11.13
2018-01-05T10:44:43.524Z,11.09
2018-01-05T10:45:43.561Z,11.06
2018-01-05T10:46:43.216Z,11.06
2018-01-05T10:47:43.440Z,11.03
2018-01-05T10:48:43.664Z,11.03
2018-01-05T10:49:43.574Z,10.92
2018-01-05T10:50:44.902Z,10.84
2018-01-05T10:51:43.851Z,10.75
2018-01-05T10:52:44.850Z,10.7
2018-01-05T10:53:45.461Z,10.8
2018-01-05T10:54:45.321Z,10.76
2018-01-05T10:55:45.036Z,10.85
2018-01-05T10:56:44.607Z,10.92
2018-01-05T10:57:45.307Z,10.92
2018-01-05T10:58:45.635Z,11.06
2018-01-05T10:59:45.855Z,11.03
2018-01-05T11:00:45.117Z,11.03
2018-01-05T11:01:45.533Z,11.08
2018-01-05T11:02:45.334Z,10.94
2018-01-05T11:03:45.715Z,10.79
2018-01-05T11:04:45.814Z,10.77
2018-01-05T11:05:45.383Z,10.73
2018-01-05T11:06:45.946Z,10.65
2018-01-05T11:07:45.992Z,10.61
2018-01-05T11:08:46.369Z,10.55
2018-01-05T11:09:46.480Z,10.51
2018-01-05T11:10:46.001Z,10.46
2018-01-05T11:11:46.668Z,10.36
2018-01-05T11:12:46.298Z,10.39
2018-01-05T11:13:46.372Z,10.46
2018-01-05T11:14:46.544Z,10.38
2018-01-05T11:15:46.650Z,10.38
2018-01-05T11:16:45.962Z,10.38
2018-01-05T11:17:46.320Z,10.51
2018-01-05T11:18:46.481Z,10.36
2018-01-05T11:19:45.815Z,10.44
2018-01-05T11:20:46.682Z,10.46
2018-01-05T11:21:46.333Z,10.39
2018-01-05T11:22:46.901Z,10.33
2018-01-05T11:23:46.538Z,10.23
2018-01-05T11:24:47.577Z,10.18
2018-01-05T11:25:47.290Z,10.26
2018-01-05T11:26:47.596Z,10.26
2018-01-05T11:27:48.177Z,10.2
2018-01-05T11:28:46.988Z,10.23
2018-01-05T11:29:47.472Z,10.2
2018-01-05T11:30:47.462Z,10.2
2018-01-05T11:31:47.448Z,10.26
2018-01-05T11:32:47.499Z,10.26
2018-01-05T11:33:47.973Z,10.29
2018-01-05T11:34:47.712Z,10.28
2018-01-05T11:35:47.862Z,10.25
2018-01-05T11:36:47.850Z,10.35
2018-01-05T11:37:47.967Z,10.38
2018-01-05T11:38:48.717Z,10.47
2018-01-05T11:39:48.597Z,10.42
2018-01-05T11:40:48.795Z,10.47
2018-01-05T11:41:48.805Z,10.54
2018-01-05T11:42:49.198Z,10.84
2018-01-05T11:43:49.267Z,11.08
2018-01-05T11:44:49.404Z,11.06
2018-01-05T11:45:49.650Z,11.2
2018-01-05T11:46:49.627Z,11.2
2018-01-05T11:47:49.912Z,11.23
2018-01-05T11:48:50.100Z,11.15
2018-01-05T11:49:50.540Z,11.16
2018-01-05T11:50:50.751Z,11.16
2018-01-05T11:51:50.556Z,11.16
2018-01-05T11:52:50.597Z,11.16
2018-01-05T11:53:51.437Z,11.21
2018-01-05T11:54:50.850Z,11.28
2018-01-05T11:55:51.337Z,11.35
2018-01-05T11:56:51.611Z,11.42
2018-01-05T11:57:51.647Z,11.45
2018-01-05T11:58:51.408Z,11.59
2018-01-05T11:59:51.806Z,11.48
2018-01-05T12:00:51.850Z,11.52
2018-01-05T12:01:51.619Z,11.45
2018-01-05T12:02:51.989Z,11.34
2018-01-05T12:03:52.541Z,11.33
2018-01-05T12:04:52.383Z,11.34
2018-01-05T12:05:52.800Z,11.35
2018-01-05T12:06:52.862Z,11.34
2018-01-05T12:07:52.622Z,11.34
2018-01-05T12:08:53.013Z,11.31
2018-01-05T12:09:53.170Z,11.28
2018-01-05T12:10:53.684Z,11.33
2018-01-05T12:11:53.922Z,11.24
2018-01-05T12:12:53.953Z,11.16
2018-01-05T12:13:54.276Z,11.18
2018-01-05T12:14:54.261Z,11.08
2018-01-05T12:15:54.914Z,11.02
2018-01-05T12:16:54.472Z,11
2018-01-05T12:17:54.669Z,11.02
2018-01-05T12:18:55.080Z,10.92
2018-01-05T12:19:55.793Z,10.95
2018-01-05T12:20:55.317Z,10.88
2018-01-05T12:21:55.303Z,10.79
2018-01-05T12:22:56.113Z,10.72
2018-01-05T12:23:56.033Z,10.65
2018-01-05T12:24:56.204Z,10.55
2018-01-05T12:25:56.013Z,10.33
2018-01-05T12:26:55.722Z,10.33
2018-01-05T12:27:55.968Z,10.32
2018-01-05T12:28:56.573Z,10.26
2018-01-05T12:29:56.200Z,10.17
2018-01-05T12:30:56.408Z,10.05
2018-01-05T12:31:56.726Z,9.96
2018-01-05T12:32:56.816Z,9.95
2018-01-05T12:33:57.343Z,9.96
2018-01-05T12:34:57.544Z,9.93
2018-01-05T12:35:57.103Z,9.92
2018-01-05T12:36:57.152Z,9.88
2018-01-05T12:37:57.332Z,9.9
2018-01-05T12:38:57.744Z,9.85
2018-01-05T12:39:57.831Z,9.82
2018-01-05T12:40:58.209Z,9.74
2018-01-05T12:41:57.643Z,9.8
2018-01-05T12:42:58.491Z,9.77
2018-01-05T12:43:57.856Z,9.71
2018-01-05T12:44:58.296Z,9.64
2018-01-05T12:45:58.590Z,9.64
2018-01-05T12:46:59.338Z,9.62
2018-01-05T12:47:58.846Z,9.52
2018-01-05T12:48:59.036Z,9.37
2018-01-05T12:49:59.884Z,9.42
2018-01-05T12:50:59.538Z,9.34
2018-01-05T12:52:00.047Z,9.21
2018-01-05T12:52:59.777Z,9.32
2018-01-05T12:53:59.772Z,9.2
2018-01-05T12:55:00.083Z,9.23
2018-01-05T12:55:59.984Z,9.11
2018-01-05T12:56:59.893Z,9.03
2018-01-05T12:57:59.915Z,9.08
2018-01-05T12:59:01.400Z,9.16
2018-01-05T13:00:01.234Z,9.2
2018-01-05T13:01:01.545Z,9.29
2018-01-05T13:02:01.338Z,9.44
2018-01-05T13:03:01.161Z,9.52
2018-01-05T13:04:01.216Z,9.6
2018-01-05T13:05:01.206Z,9.62
2018-01-05T13:06:01.197Z,9.7
2018-01-05T13:07:01.333Z,9.81
2018-01-05T13:08:01.020Z,9.85
2018-01-05T13:09:02.320Z,9.85
2018-01-05T13:10:03.061Z,9.8
2018-01-05T13:11:01.555Z,9.84
2018-01-05T13:12:02.399Z,9.81
2018-01-05T13:13:03.520Z,9.95
2018-01-05T13:14:03.325Z,9.92
2018-01-05T13:15:02.504Z,9.96
2018-01-05T13:16:02.949Z,9.9
2018-01-05T13:17:02.924Z,9.92
2018-01-05T13:18:02.635Z,9.92